Time;durP1;ratioP1;P1;durP2;ratioP2;P2;SDS_P1;SDS_P2;PMS_P1;PMS_P2;Temp;Humidity;BMP_temperature;BMP_pressure;BME280_temperature;BME280_humidity;BME280_pressure;Samples;Min_cycle;Max_cycle;Signal;HPM_P1;HPM_P2
2023/12/01 00:03:54;;;;;;;8.38;4.15;;;;;;;;;;6176114;23;19914;-87
2023/12/01 00:06:23;;;;;;;9.82;3.67;;;;;;;;;;6189237;23;20032;-86
2023/12/01 00:08:49;;;;;;;8.88;3.28;;;;;;;;;;6189492;23;20448;-87
2023/12/01 00:11:15;;;;;;;7.32;3.15;;;;;;;;;;6190541;23;20005;-87
2023/12/01 00:13:41;;;;;;;5.50;3.50;;;;;;;;;;6189597;23;20032;-87
2023/12/01 00:16:08;;;;;;;13.45;4.05;;;;;;;;;;6190084;23;20032;-86
2023/12/01 00:18:34;;;;;;;7.57;4.20;;;;;;;;;;6190043;23;20368;-88
2023/12/01 00:21:00;;;;;;;10.05;4.70;;;;;;;;;;6190380;23;20040;-87
2023/12/01 00:23:26;;;;;;;6.25;2.97;;;;;;;;;;6189613;23;20116;-87
2023/12/01 00:25:52;;;;;;;6.03;3.75;;;;;;;;;;6190055;23;20008;-87
2023/12/01 00:28:18;;;;;;;6.85;3.80;;;;;;;;;;6189992;23;20306;-87
2023/12/01 00:30:44;;;;;;;16.05;4.30;;;;;;;;;;6197881;23;20023;-87
2023/12/01 00:33:13;;;;;;;9.77;4.60;;;;;;;;;;6188703;23;20013;-87
2023/12/01 00:35:42;;;;;;;9.60;4.60;;;;;;;;;;6190048;23;20155;-88
2023/12/01 00:38:08;;;;;;;9.70;4.32;;;;;;;;;;6188924;23;20046;-87
2023/12/01 00:44:12;;;;;;;;;;;;;;;;;;;;;
2023/12/01 00:46:45;;;;;;;;;;;;;;;;;;6128026;23;20088;-87
2023/12/01 01:08:14;;;;;;;;;;;;;;;;;;;;;
2023/12/01 01:10:53;;;;;;;7.53;3.60;;;;;;;;;;6245863;23;20383;-87
2023/12/01 01:13:21;;;;;;;7.43;3.97;;;;;;;;;;6218961;23;20012;-86
2023/12/01 01:15:50;;;;;;;11.02;4.10;;;;;;;;;;6219229;23;20087;-86
2023/12/01 01:18:26;;;;;;;4.60;1.83;;;;;;;;;;6219661;23;20012;-87
2023/12/01 01:24:11;;;;;;;7.80;4.03;;;;;;;;;;6152797;23;20465;-86
2023/12/01 01:26:48;;;;;;;8.40;3.47;;;;;;;;;;6127096;23;20533;-86
2023/12/01 01:29:20;;;;;;;7.68;4.03;;;;;;;;;;6127142;23;20017;-86
2023/12/01 01:34:34;;;;;;;11.63;3.70;;;;;;;;;;6183146;23;20048;-87
2023/12/01 01:37:03;;;;;;;5.13;3.70;;;;;;;;;;6184737;23;20012;-86
2023/12/01 01:39:29;;;;;;;6.60;2.40;;;;;;;;;;6188176;23;20055;-87
2023/12/01 01:42:13;;;;;;;7.03;3.42;;;;;;;;;;6182555;23;20013;-87
2023/12/01 01:44:44;;;;;;;8.95;3.95;;;;;;;;;;6193245;23;20420;-86
2023/12/01 01:47:30;;;;;;;5.03;2.28;;;;;;;;;;6187406;23;20008;-87
2023/12/01 01:50:22;;;;;;;3.80;1.70;;;;;;;;;;6187694;23;20004;-87
2023/12/01 01:53:04;;;;;;;;;;;;;;;;;;;;;
2023/12/01 01:55:39;;;;;;;4.28;2.97;;;;;;;;;;6203534;23;19986;-86
2023/12/01 01:58:12;;;;;;;8.52;2.45;;;;;;;;;;6187196;23;20016;-86
2023/12/01 02:00:55;;;;;;;7.15;2.35;;;;;;;;;;6208495;23;20095;-87
2023/12/01 02:06:10;;;;;;;9.48;3.35;;;;;;;;;;6246576;22;20012;-86
2023/12/01 02:08:53;;;;;;;6.10;3.10;;;;;;;;;;6214548;23;20039;-86
2023/12/01 02:11:22;;;;;;;4.03;2.30;;;;;;;;;;6215049;23;20018;-87
2023/12/01 02:19:54;;;;;;;9.48;3.28;;;;;;;;;;6201924;23;20013;-86
2023/12/01 02:22:28;;;;;;;6.72;3.30;;;;;;;;;;6214676;23;20024;-86
2023/12/01 02:25:29;;;;;;;4.10;1.92;;;;;;;;;;6214592;23;20000;-87
2023/12/01 02:36:58;;;;;;;3.80;2.08;;;;;;;;;;6097394;23;20118;-87
2023/12/01 02:39:49;;;;;;;4.93;1.80;;;;;;;;;;6096415;23;20066;-87
2023/12/01 02:42:51;;;;;;;3.38;1.77;;;;;;;;;;6067937;23;20015;-87
2023/12/01 02:54:34;;;;;;;6.03;2.65;;;;;;;;;;6096933;23;20119;-87
2023/12/01 02:57:17;;;;;;;4.88;1.90;;;;;;;;;;6096825;23;20095;-86
2023/12/01 02:59:45;;;;;;;5.60;2.25;;;;;;;;;;6139220;23;20036;-86
2023/12/01 03:02:20;;;;;;;4.25;2.38;;;;;;;;;;6159274;23;20008;-87
2023/12/01 03:04:52;;;;;;;5.90;2.25;;;;;;;;;;6159320;23;20013;-86
2023/12/01 03:07:18;;;;;;;3.80;1.60;;;;;;;;;;6160368;23;20032;-86
2023/12/01 03:09:49;;;;;;;2.90;1.80;;;;;;;;;;6159568;23;20433;-86
2023/12/01 03:12:27;;;;;;;3.58;1.88;;;;;;;;;;6165182;23;20024;-86
2023/12/01 03:15:21;;;;;;;3.95;1.25;;;;;;;;;;6221018;23;20015;-87
2023/12/01 03:17:50;;;;;;;3.92;1.55;;;;;;;;;;6220971;23;20058;-86
2023/12/01 03:23:30;;;;;;;;;;;;;;;;;;;;;
2023/12/01 03:26:16;;;;;;;;;;;;;;;;;;;;;
2023/12/01 03:32:48;;;;;;;;;;;;;;;;;;;;;
2023/12/01 03:45:07;;;;;;;2.50;1.00;;;;;;;;;;6251729;22;20039;-87
2023/12/01 04:03:17;;;;;;;2.20;1.45;;;;;;;;;;6247129;23;20027;-87
2023/12/01 04:29:31;;;;;;;2.60;0.95;;;;;;;;;;6230157;22;20028;-86
2023/12/01 04:32:03;;;;;;;3.08;0.88;;;;;;;;;;6218694;23;20016;-86
2023/12/01 04:34:29;;;;;;;3.00;0.75;;;;;;;;;;6218708;23;20095;-87
2023/12/01 04:46:17;;;;;;;4.30;1.40;;;;;;;;;;6121097;23;20005;-87
2023/12/01 04:48:53;;;;;;;4.03;1.48;;;;;;;;;;6128507;23;20014;-86
2023/12/01 04:54:25;;;;;;;2.72;1.05;;;;;;;;;;6196698;23;20004;-87
2023/12/01 04:57:20;;;;;;;4.53;1.02;;;;;;;;;;6218827;23;20023;-86
2023/12/01 04:59:56;;;;;;;1.05;0.93;;;;;;;;;;6213043;23;20008;-86
2023/12/01 05:02:34;;;;;;;4.60;1.98;;;;;;;;;;6181816;23;20643;-86
2023/12/01 05:05:11;;;;;;;4.35;1.02;;;;;;;;;;6157488;23;20080;-86
2023/12/01 05:07:59;;;;;;;2.20;1.08;;;;;;;;;;6157317;23;20032;-86
2023/12/01 05:13:32;;;;;;;1.95;0.60;;;;;;;;;;6168235;23;20013;-86
2023/12/01 05:16:00;;;;;;;2.35;1.00;;;;;;;;;;6157204;23;20013;-87
2023/12/01 05:18:52;;;;;;;2.15;0.80;;;;;;;;;;6157188;23;20024;-86
2023/12/01 05:22:01;;;;;;;3.70;0.80;;;;;;;;;;6156217;23;20317;-86
2023/12/01 05:25:03;;;;;;;2.08;1.20;;;;;;;;;;6067457;23;20628;-85
2023/12/01 05:27:48;;;;;;;1.10;0.60;;;;;;;;;;6130282;23;20013;-85
2023/12/01 05:40:36;;;;;;;1.05;0.40;;;;;;;;;;6277881;22;20045;-87
2023/12/01 05:43:16;;;;;;;2.38;0.82;;;;;;;;;;6252678;22;20307;-86
2023/12/01 05:45:45;;;;;;;1.35;0.50;;;;;;;;;;6252984;22;20083;-87
2023/12/01 05:48:11;;;;;;;2.40;0.77;;;;;;;;;;6252458;22;20032;-86
2023/12/01 05:50:44;;;;;;;2.83;0.68;;;;;;;;;;6252028;22;20008;-86
2023/12/01 05:53:13;;;;;;;0.52;0.20;;;;;;;;;;6249990;22;20027;-86
2023/12/01 05:56:10;;;;;;;0.50;0.40;;;;;;;;;;6250277;22;20015;-85
2023/12/01 06:01:57;;;;;;;1.13;0.35;;;;;;;;;;6276832;22;20101;-86
2023/12/01 06:07:26;;;;;;;1.55;0.65;;;;;;;;;;6278002;22;20027;-86
2023/12/01 06:10:12;;;;;;;1.98;0.63;;;;;;;;;;6249215;22;20003;-86
2023/12/01 06:12:38;;;;;;;0.75;0.47;;;;;;;;;;6251051;22;20007;-85
2023/12/01 06:15:29;;;;;;;1.75;0.90;;;;;;;;;;6249673;22;20015;-86
2023/12/01 06:17:55;;;;;;;0.40;0.30;;;;;;;;;;6274191;22;20042;-85
2023/12/01 06:20:22;;;;;;;0.85;0.43;;;;;;;;;;6247563;22;20082;-86
2023/12/01 06:22:48;;;;;;;0.43;0.10;;;;;;;;;;6248963;22;20130;-85
2023/12/01 06:25:15;;;;;;;1.15;0.45;;;;;;;;;;6276654;22;20007;-87
2023/12/01 06:30:34;;;;;;;0.32;0.25;;;;;;;;;;6279047;22;20024;-87
2023/12/01 06:33:01;;;;;;;0.65;0.38;;;;;;;;;;6251733;22;20012;-86
2023/12/01 06:35:28;;;;;;;0.68;0.13;;;;;;;;;;6249767;22;20510;-83
2023/12/01 06:37:54;;;;;;;1.00;0.45;;;;;;;;;;6274174;22;20094;-84
2023/12/01 06:40:20;;;;;;;1.38;0.20;;;;;;;;;;6245505;22;20047;-85
2023/12/01 06:42:50;;;;;;;1.17;0.65;;;;;;;;;;6250563;22;20003;-86
2023/12/01 06:45:16;;;;;;;0.25;0.15;;;;;;;;;;6250525;22;20015;-85
2023/12/01 06:47:46;;;;;;;0.20;0.10;;;;;;;;;;6277037;22;20003;-85
2023/12/01 06:50:14;;;;;;;0.82;0.40;;;;;;;;;;6250073;22;20314;-85
2023/12/01 06:52:40;;;;;;;0.47;0.28;;;;;;;;;;6276684;22;20030;-85
2023/12/01 06:55:07;;;;;;;0.40;0.20;;;;;;;;;;6249864;22;20095;-85
2023/12/01 06:57:35;;;;;;;1.10;0.57;;;;;;;;;;6249821;22;20008;-86
2023/12/01 07:00:01;;;;;;;1.42;0.20;;;;;;;;;;6250384;22;20012;-86
2023/12/01 07:02:27;;;;;;;0.75;0.45;;;;;;;;;;6250633;22;20050;-86
2023/12/01 07:04:55;;;;;;;1.55;0.60;;;;;;;;;;6250381;22;20011;-87
2023/12/01 07:07:21;;;;;;;0.17;0.17;;;;;;;;;;6250358;22;19999;-86
2023/12/01 07:09:47;;;;;;;0.90;0.75;;;;;;;;;;6250039;22;20035;-87
2023/12/01 07:12:13;;;;;;;0.70;0.30;;;;;;;;;;6250819;22;20018;-86
2023/12/01 07:14:39;;;;;;;0.95;0.43;;;;;;;;;;6250714;22;20012;-86
2023/12/01 07:17:05;;;;;;;4.07;0.85;;;;;;;;;;6251022;22;20018;-86
2023/12/01 07:19:32;;;;;;;1.20;0.20;;;;;;;;;;6249429;22;20007;-86
2023/12/01 07:21:59;;;;;;;0.43;0.30;;;;;;;;;;6249551;22;20075;-86
2023/12/01 07:24:25;;;;;;;0.57;0.40;;;;;;;;;;6248975;22;20007;-86
2023/12/01 07:26:52;;;;;;;0.57;0.30;;;;;;;;;;6250552;22;20012;-87
2023/12/01 07:29:18;;;;;;;0.22;0.20;;;;;;;;;;6249982;22;20003;-86
2023/12/01 07:31:44;;;;;;;0.20;0.20;;;;;;;;;;6278603;22;20015;-86
2023/12/01 07:34:11;;;;;;;0.80;0.20;;;;;;;;;;6251467;22;20003;-86
2023/12/01 07:36:37;;;;;;;0.20;0.10;;;;;;;;;;6251129;22;20019;-86
2023/12/01 07:39:04;;;;;;;0.82;0.50;;;;;;;;;;6277807;22;20358;-85
2023/12/01 07:41:31;;;;;;;0.60;0.40;;;;;;;;;;6250653;22;20050;-87
2023/12/01 07:43:57;;;;;;;0.70;0.50;;;;;;;;;;6251824;22;20010;-88
2023/12/01 07:46:23;;;;;;;0.57;0.38;;;;;;;;;;6251229;22;20004;-87
2023/12/01 07:48:49;;;;;;;0.57;0.25;;;;;;;;;;6251791;22;20004;-87
2023/12/01 07:51:19;;;;;;;1.58;0.30;;;;;;;;;;6250695;22;20007;-88
2023/12/01 07:53:45;;;;;;;0.40;0.20;;;;;;;;;;6251406;22;20004;-87
2023/12/01 07:56:12;;;;;;;2.05;1.13;;;;;;;;;;6251195;22;20019;-87
2023/12/01 07:58:38;;;;;;;1.05;0.50;;;;;;;;;;6251191;22;20408;-87
2023/12/01 08:01:05;;;;;;;2.15;0.70;;;;;;;;;;6251399;22;20339;-88
2023/12/01 08:03:31;;;;;;;2.70;1.23;;;;;;;;;;6250908;22;20004;-87
2023/12/01 08:05:59;;;;;;;2.60;1.02;;;;;;;;;;6249203;22;20043;-86
2023/12/01 08:08:25;;;;;;;1.35;0.70;;;;;;;;;;6249658;22;20478;-86
2023/12/01 08:10:51;;;;;;;0.95;0.40;;;;;;;;;;6249270;22;20043;-86
2023/12/01 08:13:17;;;;;;;0.60;0.40;;;;;;;;;;6250109;22;20022;-86
2023/12/01 08:15:43;;;;;;;0.75;0.25;;;;;;;;;;6249477;22;20045;-87
2023/12/01 08:18:11;;;;;;;0.43;0.35;;;;;;;;;;6249578;22;20094;-87
2023/12/01 08:20:37;;;;;;;1.08;0.43;;;;;;;;;;6249676;22;20008;-87
2023/12/01 08:23:03;;;;;;;10.82;0.70;;;;;;;;;;6249125;22;20438;-87
2023/12/01 08:25:30;;;;;;;0.73;0.30;;;;;;;;;;6249820;22;20015;-86
2023/12/01 08:27:56;;;;;;;0.60;0.52;;;;;;;;;;6249115;22;20000;-86
2023/12/01 08:30:22;;;;;;;1.15;0.40;;;;;;;;;;6248952;22;20090;-87
2023/12/01 08:32:48;;;;;;;3.53;1.95;;;;;;;;;;6249868;22;20085;-86
2023/12/01 08:35:15;;;;;;;1.40;0.88;;;;;;;;;;6249294;22;20077;-86
2023/12/01 08:37:41;;;;;;;1.42;0.55;;;;;;;;;;6249094;22;20073;-86
2023/12/01 08:40:11;;;;;;;2.97;0.75;;;;;;;;;;6249006;22;20014;-86
2023/12/01 08:42:38;;;;;;;1.30;0.73;;;;;;;;;;6276876;22;20327;-86
2023/12/01 08:45:04;;;;;;;1.88;0.80;;;;;;;;;;6248859;22;20007;-86
2023/12/01 08:47:30;;;;;;;1.00;0.60;;;;;;;;;;6249108;22;20008;-86
2023/12/01 08:49:56;;;;;;;0.93;0.43;;;;;;;;;;6249171;22;20003;-86
2023/12/01 08:52:22;;;;;;;1.00;0.40;;;;;;;;;;6249865;22;20374;-86
2023/12/01 08:54:48;;;;;;;2.38;1.00;;;;;;;;;;6249981;22;20015;-86
2023/12/01 08:57:14;;;;;;;2.30;1.30;;;;;;;;;;6249903;22;20038;-87
2023/12/01 08:59:41;;;;;;;1.33;0.50;;;;;;;;;;6249504;22;20010;-86
2023/12/01 09:02:07;;;;;;;1.30;0.50;;;;;;;;;;6249675;22;20599;-86
2023/12/01 09:04:33;;;;;;;0.50;0.35;;;;;;;;;;6249967;22;20031;-86
2023/12/01 09:07:02;;;;;;;1.08;0.90;;;;;;;;;;6249797;22;20435;-86
2023/12/01 09:09:28;;;;;;;0.88;0.38;;;;;;;;;;6250130;22;20000;-86
2023/12/01 09:11:54;;;;;;;1.90;0.52;;;;;;;;;;6249193;22;20061;-87
2023/12/01 09:14:20;;;;;;;0.82;0.30;;;;;;;;;;6250477;22;20019;-87
2023/12/01 09:16:46;;;;;;;1.45;0.55;;;;;;;;;;6251078;22;20016;-86
2023/12/01 09:19:16;;;;;;;2.72;1.10;;;;;;;;;;6251593;22;20004;-86
2023/12/01 09:21:46;;;;;;;1.88;1.13;;;;;;;;;;6250982;22;20043;-87
2023/12/01 09:24:23;;;;;;;1.27;0.73;;;;;;;;;;6251130;22;20003;-86
2023/12/01 09:26:50;;;;;;;2.17;0.70;;;;;;;;;;6251483;22;20437;-86
2023/12/01 09:29:20;;;;;;;5.15;1.35;;;;;;;;;;6251339;22;20012;-86
2023/12/01 09:31:49;;;;;;;2.13;0.50;;;;;;;;;;6251316;22;20007;-86
2023/12/01 09:34:18;;;;;;;3.03;0.75;;;;;;;;;;6251012;22;20061;-86
2023/12/01 09:36:49;;;;;;;4.38;1.42;;;;;;;;;;6251748;22;20753;-87
2023/12/01 09:39:28;;;;;;;;;;;;;;;;;;;;;
2023/12/01 09:42:09;;;;;;;1.10;0.80;;;;;;;;;;6214182;23;20499;-87
2023/12/01 09:44:45;;;;;;;1.77;0.85;;;;;;;;;;6213739;23;20011;-86
2023/12/01 09:47:20;;;;;;;3.13;0.77;;;;;;;;;;6213880;23;20059;-87
2023/12/01 09:49:46;;;;;;;3.90;0.55;;;;;;;;;;6214064;23;20027;-86
2023/12/01 09:52:15;;;;;;;4.28;0.45;;;;;;;;;;6213459;23;20039;-87
2023/12/01 09:54:43;;;;;;;5.07;1.38;;;;;;;;;;6215370;23;20013;-86
2023/12/01 09:57:10;;;;;;;2.78;0.82;;;;;;;;;;6214994;23;20096;-87
2023/12/01 09:59:36;;;;;;;1.42;1.10;;;;;;;;;;6215049;23;20080;-86
2023/12/01 10:02:05;;;;;;;0.60;0.45;;;;;;;;;;6214738;23;20472;-86
2023/12/01 10:04:37;;;;;;;4.18;0.90;;;;;;;;;;6245341;22;20012;-86
2023/12/01 10:07:03;;;;;;;5.80;1.10;;;;;;;;;;6251162;22;20449;-86
2023/12/01 10:09:38;;;;;;;2.58;1.13;;;;;;;;;;6251521;22;20015;-86
2023/12/01 10:12:13;;;;;;;2.20;0.77;;;;;;;;;;6251344;22;20319;-86
2023/12/01 10:14:42;;;;;;;3.33;1.10;;;;;;;;;;6250968;22;20094;-86
2023/12/01 10:17:08;;;;;;;5.30;1.10;;;;;;;;;;6251611;22;20012;-86
2023/12/01 10:19:44;;;;;;;1.58;0.75;;;;;;;;;;6251975;22;20015;-87
2023/12/01 10:22:13;;;;;;;1.48;0.77;;;;;;;;;;6251015;22;20016;-86
2023/12/01 10:24:39;;;;;;;3.00;1.15;;;;;;;;;;6251322;22;20019;-87
2023/12/01 10:27:08;;;;;;;0.50;0.40;;;;;;;;;;6250498;22;20355;-86
2023/12/01 10:29:34;;;;;;;1.27;0.60;;;;;;;;;;6250900;22;20007;-87
2023/12/01 10:32:02;;;;;;;3.80;1.73;;;;;;;;;;6251501;22;20011;-87
2023/12/01 10:34:28;;;;;;;1.58;0.50;;;;;;;;;;6251256;22;20591;-87
2023/12/01 10:36:54;;;;;;;1.70;1.25;;;;;;;;;;6279119;22;20007;-87
2023/12/01 10:39:25;;;;;;;2.97;1.23;;;;;;;;;;6252424;22;20090;-86
2023/12/01 10:41:53;;;;;;;0.43;0.22;;;;;;;;;;6251878;22;20071;-87
2023/12/01 10:44:21;;;;;;;0.63;0.47;;;;;;;;;;6251678;22;20004;-87
2023/12/01 10:46:48;;;;;;;0.63;0.28;;;;;;;;;;6251555;22;20062;-87
2023/12/01 10:49:17;;;;;;;1.50;0.57;;;;;;;;;;6251691;22;20020;-87
2023/12/01 10:51:44;;;;;;;0.25;0.17;;;;;;;;;;6251937;22;20008;-87
2023/12/01 10:54:11;;;;;;;2.67;1.00;;;;;;;;;;6251932;22;20007;-86
2023/12/01 10:56:45;;;;;;;0.13;0.13;;;;;;;;;;6251785;22;20039;-87
2023/12/01 10:59:12;;;;;;;2.47;0.75;;;;;;;;;;6251391;22;20000;-87
2023/12/01 11:01:39;;;;;;;1.02;0.50;;;;;;;;;;6251048;22;20054;-88
2023/12/01 11:04:07;;;;;;;0.55;0.30;;;;;;;;;;6251377;22;20004;-87
2023/12/01 11:06:59;;;;;;;0.40;0.10;;;;;;;;;;6250433;22;20007;-87
2023/12/01 11:09:30;;;;;;;1.45;0.45;;;;;;;;;;6244956;22;20008;-87
2023/12/01 11:12:15;;;;;;;3.30;1.13;;;;;;;;;;6278670;22;20019;-87
2023/12/01 11:14:51;;;;;;;0.98;0.57;;;;;;;;;;6251257;22;20010;-87
2023/12/01 11:17:17;;;;;;;2.47;0.73;;;;;;;;;;6251494;22;20011;-87
2023/12/01 11:19:44;;;;;;;1.38;0.47;;;;;;;;;;6251453;22;20035;-87
2023/12/01 11:22:27;;;;;;;1.23;0.85;;;;;;;;;;6251508;22;20474;-87
2023/12/01 11:24:56;;;;;;;0.43;0.30;;;;;;;;;;6251627;22;20074;-87
2023/12/01 11:27:28;;;;;;;2.17;0.82;;;;;;;;;;6251196;22;20366;-87
2023/12/01 11:29:59;;;;;;;0.15;0.10;;;;;;;;;;6250948;22;20027;-87
2023/12/01 11:32:33;;;;;;;4.05;0.40;;;;;;;;;;6251033;22;20016;-87
2023/12/01 11:35:10;;;;;;;1.00;0.50;;;;;;;;;;6250215;22;20057;-87
2023/12/01 11:38:04;;;;;;;1.08;0.40;;;;;;;;;;6250853;22;20024;-87
2023/12/01 11:40:39;;;;;;;1.65;0.55;;;;;;;;;;6251001;22;20015;-87
2023/12/01 11:43:09;;;;;;;1.23;0.60;;;;;;;;;;6250355;22;20370;-86
2023/12/01 11:45:49;;;;;;;2.97;0.38;;;;;;;;;;6250635;22;20010;-87
2023/12/01 11:48:15;;;;;;;1.88;1.05;;;;;;;;;;6251106;22;20008;-87
2023/12/01 11:50:42;;;;;;;2.00;1.02;;;;;;;;;;6251337;22;20010;-86
2023/12/01 11:53:12;;;;;;;3.22;1.55;;;;;;;;;;6251290;22;20008;-86
2023/12/01 11:55:38;;;;;;;4.22;1.45;;;;;;;;;;6251389;22;20327;-86
2023/12/01 11:58:05;;;;;;;2.30;0.80;;;;;;;;;;6250863;22;20019;-86
2023/12/01 12:00:35;;;;;;;8.48;1.08;;;;;;;;;;6250395;22;20004;-87
2023/12/01 12:03:01;;;;;;;5.05;1.08;;;;;;;;;;6277764;22;20004;-87
2023/12/01 12:05:28;;;;;;;2.10;0.70;;;;;;;;;;6250701;22;20327;-86
2023/12/01 12:07:55;;;;;;;1.05;0.45;;;;;;;;;;6251146;22;19999;-86
2023/12/01 12:10:22;;;;;;;1.60;0.60;;;;;;;;;;6250359;22;20007;-86
2023/12/01 12:12:51;;;;;;;1.05;0.43;;;;;;;;;;6251175;22;20011;-87
2023/12/01 12:15:20;;;;;;;1.08;0.80;;;;;;;;;;6250396;22;20012;-87
2023/12/01 12:17:48;;;;;;;2.03;0.88;;;;;;;;;;6250393;22;20419;-86
2023/12/01 12:20:24;;;;;;;1.20;0.35;;;;;;;;;;6250516;22;20423;-86
2023/12/01 12:25:50;;;;;;;1.65;0.38;;;;;;;;;;6277724;22;20308;-86
2023/12/01 12:28:16;;;;;;;1.05;0.35;;;;;;;;;;6250518;22;20484;-86
2023/12/01 12:30:48;;;;;;;1.67;0.47;;;;;;;;;;6249749;22;20012;-87
2023/12/01 12:33:22;;;;;;;0.85;0.38;;;;;;;;;;6249888;22;20098;-86
2023/12/01 12:35:54;;;;;;;3.40;0.65;;;;;;;;;;6250960;22;20042;-87
2023/12/01 12:38:24;;;;;;;0.25;0.15;;;;;;;;;;6250643;22;20034;-86
2023/12/01 12:40:52;;;;;;;0.90;0.55;;;;;;;;;;6250224;22;20021;-87
2023/12/01 12:43:22;;;;;;;0.55;0.40;;;;;;;;;;6250812;22;20095;-86
2023/12/01 12:45:57;;;;;;;0.90;0.52;;;;;;;;;;6249446;22;20553;-87
2023/12/01 12:48:31;;;;;;;1.75;0.93;;;;;;;;;;6250463;22;20018;-87
2023/12/01 12:51:08;;;;;;;1.13;0.50;;;;;;;;;;6249833;22;20004;-87
2023/12/01 12:54:00;;;;;;;1.48;0.75;;;;;;;;;;6250777;22;20058;-87
2023/12/01 12:56:34;;;;;;;3.53;0.40;;;;;;;;;;6248954;22;20024;-87
2023/12/01 12:59:05;;;;;;;0.32;0.10;;;;;;;;;;6248877;22;20008;-87
2023/12/01 13:01:34;;;;;;;0.22;0.17;;;;;;;;;;6249847;22;20022;-87
2023/12/01 13:04:00;;;;;;;1.05;0.55;;;;;;;;;;6249083;22;20012;-87
2023/12/01 13:06:28;;;;;;;0.10;0.03;;;;;;;;;;6249219;22;20039;-86
2023/12/01 13:08:54;;;;;;;0.00;0.00;;;;;;;;;;6248966;22;20094;-86
2023/12/01 13:11:23;;;;;;;0.00;0.00;;;;;;;;;;6249369;22;20035;-87
2023/12/01 13:13:49;;;;;;;0.10;0.05;;;;;;;;;;6248656;22;20098;-86
2023/12/01 13:16:17;;;;;;;2.22;0.40;;;;;;;;;;6248953;22;20054;-87
2023/12/01 13:18:45;;;;;;;0.00;0.00;;;;;;;;;;6249512;22;20008;-87
2023/12/01 13:21:12;;;;;;;0.00;0.00;;;;;;;;;;6250066;22;20020;-87
2023/12/01 13:23:38;;;;;;;0.20;0.00;;;;;;;;;;6249849;22;20443;-86
2023/12/01 13:26:04;;;;;;;2.22;0.20;;;;;;;;;;6249066;22;20098;-87
2023/12/01 13:28:31;;;;;;;1.73;0.50;;;;;;;;;;6249751;22;20004;-86
2023/12/01 13:30:57;;;;;;;0.00;0.00;;;;;;;;;;6276045;22;20004;-87
2023/12/01 13:33:23;;;;;;;0.10;0.00;;;;;;;;;;6249039;22;20012;-87
2023/12/01 13:35:52;;;;;;;0.00;0.00;;;;;;;;;;6250096;22;20035;-86
2023/12/01 13:38:18;;;;;;;2.45;0.00;;;;;;;;;;6276673;22;20016;-86
2023/12/01 13:40:50;;;;;;;0.10;0.10;;;;;;;;;;6249414;22;20066;-86
2023/12/01 13:43:18;;;;;;;0.00;0.00;;;;;;;;;;6248913;22;20016;-86
2023/12/01 13:45:59;;;;;;;0.15;0.00;;;;;;;;;;6249081;22;20019;-86
2023/12/01 13:48:35;;;;;;;1.00;0.30;;;;;;;;;;6247589;22;20016;-86
2023/12/01 13:51:02;;;;;;;1.15;0.08;;;;;;;;;;6249431;22;20378;-86
2023/12/01 13:53:30;;;;;;;0.52;0.22;;;;;;;;;;6249051;22;20019;-87
2023/12/01 13:56:03;;;;;;;0.00;0.00;;;;;;;;;;6248923;22;20093;-86
2023/12/01 13:58:31;;;;;;;0.00;0.00;;;;;;;;;;6249809;22;20035;-86
2023/12/01 14:01:16;;;;;;;0.63;0.08;;;;;;;;;;6247458;22;20025;-87
2023/12/01 14:04:13;;;;;;;;;;;;;;;;;;;;;
2023/12/01 14:06:42;;;;;;;0.05;0.00;;;;;;;;;;6276619;22;20479;-86
2023/12/01 14:09:14;;;;;;;0.00;0.00;;;;;;;;;;6249039;22;20049;-85
2023/12/01 14:11:45;;;;;;;0.10;0.10;;;;;;;;;;6249444;22;20020;-85
2023/12/01 14:14:11;;;;;;;0.20;0.00;;;;;;;;;;6249533;22;20010;-86
2023/12/01 14:16:40;;;;;;;0.65;0.45;;;;;;;;;;6250084;22;20098;-86
2023/12/01 14:19:06;;;;;;;0.10;0.00;;;;;;;;;;6249094;22;20000;-86
2023/12/01 14:21:56;;;;;;;0.35;0.20;;;;;;;;;;6250329;22;20035;-86
2023/12/01 14:24:30;;;;;;;0.28;0.28;;;;;;;;;;6265079;22;20011;-86
2023/12/01 14:26:58;;;;;;;0.10;0.00;;;;;;;;;;6250081;22;20015;-87
2023/12/01 14:29:32;;;;;;;0.52;0.15;;;;;;;;;;6250690;22;20419;-86
2023/12/01 14:32:01;;;;;;;0.15;0.10;;;;;;;;;;6250543;22;20027;-87
2023/12/01 14:34:27;;;;;;;2.72;0.40;;;;;;;;;;6250677;22;20035;-87
2023/12/01 14:36:55;;;;;;;2.05;0.55;;;;;;;;;;6251541;22;20106;-87
2023/12/01 14:39:24;;;;;;;0.40;0.17;;;;;;;;;;6251315;22;20045;-87
2023/12/01 14:41:50;;;;;;;;;;;;;;;;;;6251449;22;20027;-86
2023/12/01 14:44:16;;;;;;;0.57;0.10;;;;;;;;;;6249991;22;20303;-86
2023/12/01 14:46:43;;;;;;;1.38;0.50;;;;;;;;;;6249558;22;20011;-86
2023/12/01 14:49:13;;;;;;;0.60;0.30;;;;;;;;;;6247737;22;20367;-86
2023/12/01 14:51:42;;;;;;;;;;;;;;;;;;6250647;22;20016;-86
2023/12/01 14:54:13;;;;;;;0.45;0.13;;;;;;;;;;6249552;22;20264;-87
2023/12/01 14:56:51;;;;;;;0.30;0.22;;;;;;;;;;6249937;22;20083;-86
2023/12/01 14:59:18;;;;;;;0.50;0.15;;;;;;;;;;6251050;22;20004;-86
2023/12/01 15:01:49;;;;;;;0.75;0.47;;;;;;;;;;6251274;22;20014;-87
2023/12/01 15:04:18;;;;;;;0.88;0.57;;;;;;;;;;6249389;22;20365;-86
2023/12/01 15:06:48;;;;;;;0.80;0.40;;;;;;;;;;6251210;22;20011;-87
2023/12/01 15:12:14;;;;;;;2.15;0.30;;;;;;;;;;6255272;22;20466;-85
2023/12/01 15:14:40;;;;;;;2.15;0.50;;;;;;;;;;6250019;22;20039;-86
2023/12/01 15:17:06;;;;;;;0.85;0.32;;;;;;;;;;6250552;22;20065;-86
2023/12/01 15:19:32;;;;;;;1.38;0.45;;;;;;;;;;6250148;22;20411;-86
2023/12/01 15:21:58;;;;;;;0.22;0.10;;;;;;;;;;6250195;22;20012;-86
2023/12/01 15:27:26;;;;;;;27.25;9.52;;;;;;;;;;6259842;22;20447;-87
2023/12/01 15:29:52;;;;;;;;;;;;;;;;;;6251023;22;20000;-87
2023/12/01 15:32:18;;;;;;;;;;;;;;;;;;6250701;22;19935;-86
2023/12/01 15:34:44;;;;;;;1.92;1.30;;;;;;;;;;6275679;22;19904;-85
2023/12/01 15:37:10;;;;;;;1.67;0.82;;;;;;;;;;6249846;22;20011;-85
2023/12/01 15:39:40;;;;;;;3.10;0.57;;;;;;;;;;6249466;22;20041;-85
2023/12/01 15:42:06;;;;;;;0.70;0.40;;;;;;;;;;6276895;22;20075;-87
2023/12/01 15:44:33;;;;;;;2.15;0.95;;;;;;;;;;6251059;22;20004;-87
2023/12/01 15:46:59;;;;;;;1.35;0.35;;;;;;;;;;6250552;22;20011;-86
2023/12/01 15:49:37;;;;;;;2.70;1.50;;;;;;;;;;6248098;22;20749;-87
2023/12/01 15:52:27;;;;;;;2.72;1.42;;;;;;;;;;6249695;22;20022;-87
2023/12/01 15:54:56;;;;;;;2.45;0.98;;;;;;;;;;6248673;22;20038;-86
2023/12/01 15:57:25;;;;;;;2.78;1.15;;;;;;;;;;6244980;23;20122;-87
2023/12/01 15:59:53;;;;;;;2.92;0.95;;;;;;;;;;6243522;23;20015;-85
2023/12/01 16:05:22;;;;;;;2.50;0.32;;;;;;;;;;6244529;23;20059;-87
2023/12/01 16:07:50;;;;;;;0.15;0.05;;;;;;;;;;6243007;22;20363;-86
2023/12/01 16:10:16;;;;;;;2.55;0.70;;;;;;;;;;6242575;23;20008;-85
2023/12/01 16:12:44;;;;;;;;;;;;;;;;;;6242543;23;20042;-85
2023/12/01 16:15:10;;;;;;;;;;;;;;;;;;6239188;23;19907;-86
2023/12/01 16:17:36;;;;;;;1.48;0.88;;;;;;;;;;6240596;23;19907;-85
2023/12/01 16:20:02;;;;;;;4.38;1.95;;;;;;;;;;6241573;23;20372;-86
2023/12/01 16:22:28;;;;;;;1.67;0.70;;;;;;;;;;6240238;23;20115;-81
2023/12/01 16:24:54;;;;;;;3.10;0.75;;;;;;;;;;6241945;23;20004;-81
2023/12/01 16:27:20;;;;;;;1.42;0.93;;;;;;;;;;6241177;22;20016;-82
2023/12/01 16:29:46;;;;;;;3.83;1.48;;;;;;;;;;6238800;23;20070;-81
2023/12/01 16:32:13;;;;;;;2.17;0.75;;;;;;;;;;6240436;23;20363;-82
2023/12/01 16:34:39;;;;;;;1.20;0.63;;;;;;;;;;6265841;22;20012;-83
2023/12/01 16:37:05;;;;;;;15.57;2.72;;;;;;;;;;6272887;22;20733;-80
2023/12/01 16:39:31;;;;;;;1.42;0.60;;;;;;;;;;6272328;22;20011;-82
2023/12/01 16:42:00;;;;;;;2.33;1.40;;;;;;;;;;6272439;22;20720;-88
2023/12/01 16:44:26;;;;;;;;;;;;;;;;;;6244979;22;20023;-86
2023/12/01 16:46:52;;;;;;;0.65;0.43;;;;;;;;;;6273280;22;20292;-85
2023/12/01 16:49:18;;;;;;;2.08;0.65;;;;;;;;;;6246138;22;20537;-83
2023/12/01 16:51:44;;;;;;;1.55;0.65;;;;;;;;;;6246169;22;20008;-87
2023/12/01 16:54:10;;;;;;;1.38;0.70;;;;;;;;;;6246110;22;20011;-87
2023/12/01 16:56:36;;;;;;;1.48;1.17;;;;;;;;;;6248543;22;20016;-84
2023/12/01 16:59:02;;;;;;;4.30;0.88;;;;;;;;;;6248052;22;20050;-81
2023/12/01 17:01:28;;;;;;;5.38;1.55;;;;;;;;;;6248251;22;20011;-85
2023/12/01 17:03:54;;;;;;;4.30;1.88;;;;;;;;;;6274631;22;20049;-80
2023/12/01 17:06:20;;;;;;;;;;;;;;;;;;6272854;22;20081;-82
2023/12/01 17:08:46;;;;;;;4.35;2.20;;;;;;;;;;6245796;22;19926;-83
2023/12/01 17:11:12;;;;;;;3.45;1.90;;;;;;;;;;6245830;22;20016;-82
2023/12/01 17:13:38;;;;;;;9.32;3.00;;;;;;;;;;6273233;22;20438;-83
2023/12/01 17:16:05;;;;;;;2.88;1.58;;;;;;;;;;6269745;22;20007;-81
2023/12/01 17:18:31;;;;;;;2.10;1.55;;;;;;;;;;6268975;22;20042;-82
2023/12/01 17:20:57;;;;;;;3.88;1.85;;;;;;;;;;6270752;22;20304;-84
2023/12/01 17:23:23;;;;;;;2.95;1.45;;;;;;;;;;6246944;22;20323;-83
2023/12/01 17:28:56;;;;;;;2.08;0.73;;;;;;;;;;6153529;23;20054;-83
2023/12/01 17:31:22;;;;;;;4.38;1.70;;;;;;;;;;6125499;23;20017;-82
2023/12/01 17:33:48;;;;;;;3.67;1.55;;;;;;;;;;6151150;23;20418;-82
2023/12/01 17:36:14;;;;;;;6.15;1.45;;;;;;;;;;6148225;23;20017;-82
2023/12/01 17:38:40;;;;;;;13.48;2.15;;;;;;;;;;6152462;23;20303;-83
2023/12/01 17:41:06;;;;;;;4.22;2.38;;;;;;;;;;6151595;23;20068;-81
2023/12/01 17:43:32;;;;;;;2.00;1.27;;;;;;;;;;6152515;23;20044;-81
2023/12/01 17:45:58;;;;;;;;;;;;;;;;;;6153268;23;20432;-81
2023/12/01 17:48:24;;;;;;;;;;;;;;;;;;6153743;23;19912;-80
2023/12/01 17:50:50;;;;;;;;;;;;;;;;;;6153773;23;19912;-80
2023/12/01 17:53:15;;;;;;;;;;;;;;;;;;6153648;23;19928;-81
2023/12/01 17:55:41;;;;;;;;;;;;;;;;;;6154068;23;19905;-81
2023/12/01 17:58:07;;;;;;;5.68;2.50;;;;;;;;;;6152680;23;19904;-81